createdAt,value
2023-03-13T00:01:46.515Z,10.79
2023-03-13T00:04:13.540Z,10.75
2023-03-13T00:06:42.391Z,10.75
2023-03-13T00:09:12.631Z,10.73
2023-03-13T00:11:39.728Z,10.75
2023-03-13T00:14:08.053Z,10.72
2023-03-13T00:16:37.508Z,10.76
2023-03-13T00:19:06.486Z,10.80
2023-03-13T00:21:34.737Z,10.79
2023-03-13T00:24:01.716Z,10.79
2023-03-13T00:26:30.244Z,10.86
2023-03-13T00:28:57.732Z,10.89
2023-03-13T00:31:28.758Z,10.84
2023-03-13T00:34:00.323Z,10.86
2023-03-13T00:36:33.634Z,10.97
2023-03-13T00:39:01.453Z,10.94
2023-03-13T00:41:31.806Z,10.92
2023-03-13T00:43:59.186Z,10.91
2023-03-13T00:46:29.513Z,10.92
2023-03-13T00:48:57.800Z,10.97
2023-03-13T00:51:27.123Z,10.98
2023-03-13T00:53:56.108Z,10.98
2023-03-13T00:56:23.600Z,11.00
2023-03-13T00:58:51.057Z,11.01
2023-03-13T01:01:26.857Z,11.07
2023-03-13T01:04:01.392Z,11.03
2023-03-13T01:06:31.249Z,11.06
2023-03-13T01:08:59.368Z,11.08
2023-03-13T01:11:33.888Z,11.08
2023-03-13T01:14:04.797Z,11.09
2023-03-13T01:16:35.258Z,11.09
2023-03-13T01:19:07.010Z,11.11
2023-03-13T01:21:34.459Z,11.12
2023-03-13T01:24:01.748Z,11.15
2023-03-13T01:26:29.244Z,11.18
2023-03-13T01:28:57.097Z,11.20
2023-03-13T01:31:31.521Z,11.25
2023-03-13T01:34:02.620Z,11.23
2023-03-13T01:36:30.876Z,11.29
2023-03-13T01:39:00.673Z,11.28
2023-03-13T01:41:29.992Z,11.27
2023-03-13T01:43:58.792Z,11.29
2023-03-13T01:46:28.989Z,11.31
2023-03-13T01:49:12.278Z,11.30
2023-03-13T01:51:44.110Z,11.31
2023-03-13T01:54:21.844Z,11.37
2023-03-13T01:57:23.453Z,11.36
2023-03-13T01:59:54.648Z,11.44
2023-03-13T02:02:23.307Z,11.42
2023-03-13T02:04:57.222Z,11.43
2023-03-13T02:07:40.325Z,11.40
2023-03-13T02:10:10.339Z,11.48
2023-03-13T02:12:41.302Z,11.51
2023-03-13T02:15:16.844Z,11.50
2023-03-13T02:17:46.521Z,11.53
2023-03-13T02:20:16.165Z,11.53
2023-03-13T02:23:14.786Z,11.63
2023-03-13T02:25:47.261Z,11.63
2023-03-13T02:28:23.255Z,11.67
2023-03-13T02:30:54.690Z,11.77
2023-03-13T02:33:26.292Z,11.78
2023-03-13T02:35:54.678Z,11.80
2023-03-13T02:38:27.449Z,11.79
2023-03-13T02:40:57.058Z,11.80
2023-03-13T02:43:32.999Z,11.76
2023-03-13T02:46:17.301Z,11.79
2023-03-13T02:48:47.368Z,11.85
2023-03-13T02:51:31.632Z,11.85
2023-03-13T02:54:05.004Z,11.95
2023-03-13T02:56:36.399Z,11.95
2023-03-13T02:59:03.456Z,11.98
2023-03-13T03:01:30.451Z,11.93
2023-03-13T03:03:57.484Z,11.96
2023-03-13T03:06:24.479Z,12.06
2023-03-13T03:08:51.460Z,12.05
2023-03-13T03:11:18.459Z,12.02
2023-03-13T03:13:46.060Z,12.05
2023-03-13T03:16:15.510Z,12.00
2023-03-13T03:18:42.514Z,12.01
2023-03-13T03:21:09.514Z,12.02
2023-03-13T03:23:37.342Z,12.02
2023-03-13T03:26:06.455Z,12.02
2023-03-13T03:28:33.747Z,12.04
2023-03-13T03:31:09.816Z,12.06
2023-03-13T03:33:38.065Z,12.06
2023-03-13T03:36:09.795Z,12.16
2023-03-13T03:38:39.729Z,12.19
2023-03-13T03:41:08.834Z,12.17
2023-03-13T03:43:35.964Z,12.21
2023-03-13T03:46:03.346Z,12.22
2023-03-13T03:48:30.377Z,12.23
2023-03-13T03:50:57.425Z,12.24
2023-03-13T03:53:24.906Z,12.27
2023-03-13T03:55:51.949Z,12.29
2023-03-13T03:58:18.981Z,12.31
2023-03-13T04:00:47.757Z,12.29
2023-03-13T04:03:15.506Z,12.34
2023-03-13T04:05:42.982Z,12.41
2023-03-13T04:08:11.114Z,12.34
2023-03-13T04:10:38.199Z,12.39
2023-03-13T04:13:05.192Z,12.39
2023-03-13T04:15:32.187Z,12.34
2023-03-13T04:17:59.364Z,12.40
2023-03-13T04:20:28.951Z,12.35
2023-03-13T04:22:56.004Z,12.41
2023-03-13T04:25:23.338Z,12.46
2023-03-13T04:27:51.023Z,12.48
2023-03-13T04:30:18.767Z,12.47
2023-03-13T04:32:46.002Z,12.46
2023-03-13T04:35:13.018Z,12.50
2023-03-13T04:37:40.124Z,12.47
2023-03-13T04:40:07.870Z,12.54
2023-03-13T04:42:34.920Z,12.54
2023-03-13T04:45:01.984Z,12.56
2023-03-13T04:47:28.969Z,12.56
2023-03-13T04:49:55.916Z,12.56
2023-03-13T04:52:23.073Z,12.63
2023-03-13T04:54:51.199Z,12.59
2023-03-13T04:57:18.373Z,12.57
2023-03-13T04:59:45.497Z,12.62
2023-03-13T05:02:13.444Z,12.67
2023-03-13T05:04:40.619Z,12.68
2023-03-13T05:07:07.978Z,12.67
2023-03-13T05:09:36.119Z,12.65
2023-03-13T05:12:03.079Z,12.68
2023-03-13T05:14:30.135Z,12.72
2023-03-13T05:16:57.134Z,12.75
2023-03-13T05:19:24.135Z,12.75
2023-03-13T05:21:51.177Z,12.75
2023-03-13T05:24:18.164Z,12.75
2023-03-13T05:26:45.125Z,12.77
2023-03-13T05:29:12.078Z,12.74
2023-03-13T05:31:39.050Z,12.73
2023-03-13T05:34:06.071Z,12.75
2023-03-13T05:36:33.175Z,12.77
2023-03-13T05:39:00.201Z,12.76
2023-03-13T05:41:27.141Z,12.80
2023-03-13T05:43:54.163Z,12.77
2023-03-13T05:46:21.156Z,12.80
2023-03-13T05:48:48.309Z,12.79
2023-03-13T05:51:15.285Z,12.77
2023-03-13T05:53:42.265Z,12.78
2023-03-13T05:56:09.281Z,12.83
2023-03-13T05:58:36.555Z,12.85
2023-03-13T06:01:09.587Z,12.84
2023-03-13T06:03:37.002Z,12.83
2023-03-13T06:06:04.375Z,12.85
2023-03-13T06:08:32.699Z,12.82
2023-03-13T06:11:01.498Z,12.84
2023-03-13T06:13:29.207Z,12.81
2023-03-13T06:16:02.211Z,12.84
2023-03-13T06:18:29.165Z,12.83
2023-03-13T06:21:01.404Z,12.84
2023-03-13T06:23:29.210Z,12.80
2023-03-13T06:25:56.704Z,12.87
2023-03-13T06:28:23.892Z,12.85
2023-03-13T06:30:51.048Z,12.89
2023-03-13T06:33:18.206Z,12.85
2023-03-13T06:35:56.374Z,12.90
2023-03-13T06:38:27.045Z,12.91
2023-03-13T06:40:54.463Z,12.94
2023-03-13T06:43:21.690Z,12.89
2023-03-13T06:45:48.709Z,13.14
2023-03-13T06:48:15.658Z,13.64
2023-03-13T06:50:43.282Z,13.83
2023-03-13T06:53:19.906Z,13.97
2023-03-13T06:55:49.126Z,14.03
2023-03-13T06:58:30.917Z,14.10
2023-03-13T07:01:13.999Z,14.16
2023-03-13T07:03:42.078Z,14.19
2023-03-13T07:06:11.271Z,14.22
2023-03-13T07:08:38.766Z,14.23
2023-03-13T07:11:10.136Z,14.23
2023-03-13T07:13:37.754Z,14.28
2023-03-13T07:16:11.626Z,14.34
2023-03-13T07:18:41.814Z,14.33
2023-03-13T07:21:10.882Z,14.34
2023-03-13T07:23:37.864Z,14.35
2023-03-13T07:26:16.339Z,14.39
2023-03-13T07:28:43.536Z,14.40
2023-03-13T07:31:21.449Z,14.39
2023-03-13T07:33:48.589Z,14.42
2023-03-13T07:36:16.434Z,14.43
2023-03-13T07:38:43.944Z,14.45
2023-03-13T07:41:13.671Z,14.46
2023-03-13T07:43:41.266Z,14.45
2023-03-13T07:46:12.306Z,14.47
2023-03-13T07:48:41.824Z,14.46
2023-03-13T07:51:33.505Z,14.47
2023-03-13T07:54:04.126Z,14.45
2023-03-13T07:56:31.112Z,14.46
2023-03-13T07:58:58.067Z,14.45
2023-03-13T08:01:30.377Z,14.46
2023-03-13T08:03:58.827Z,14.50
2023-03-13T08:06:27.096Z,14.48
2023-03-13T08:08:58.108Z,14.49
2023-03-13T08:11:27.932Z,14.51
2023-03-13T08:13:56.501Z,14.51
2023-03-13T08:16:26.931Z,14.51
2023-03-13T08:18:56.839Z,14.51
2023-03-13T08:21:27.502Z,14.51
2023-03-13T08:24:00.169Z,14.49
2023-03-13T08:26:30.047Z,14.50
2023-03-13T08:29:04.655Z,14.51
2023-03-13T08:31:43.989Z,14.51
2023-03-13T08:34:13.185Z,14.50
2023-03-13T08:36:40.937Z,14.52
2023-03-13T08:39:15.840Z,14.52
2023-03-13T08:41:43.110Z,14.52
2023-03-13T08:44:20.077Z,14.52
2023-03-13T08:46:49.186Z,14.52
2023-03-13T08:49:17.845Z,14.49
2023-03-13T08:51:45.131Z,14.49
2023-03-13T08:54:12.239Z,14.48
2023-03-13T08:56:40.964Z,14.51
2023-03-13T08:59:08.065Z,14.50
2023-03-13T09:01:36.572Z,14.51
2023-03-13T09:04:05.408Z,14.55
2023-03-13T09:06:34.791Z,14.55
2023-03-13T09:09:02.710Z,14.53
2023-03-13T09:11:29.857Z,14.53
2023-03-13T09:14:00.434Z,14.56
2023-03-13T09:16:32.503Z,14.58
2023-03-13T09:19:00.556Z,14.59
2023-03-13T09:21:33.466Z,14.57
2023-03-13T09:24:01.417Z,14.58
2023-03-13T09:26:28.942Z,14.58
2023-03-13T09:28:56.367Z,14.58
2023-03-13T09:31:26.036Z,14.57
2023-03-13T09:33:53.272Z,14.59
2023-03-13T09:36:23.113Z,14.57
2023-03-13T09:38:53.083Z,14.59
2023-03-13T09:41:47.751Z,14.59
2023-03-13T09:44:33.961Z,14.59
2023-03-13T09:47:23.297Z,14.57
2023-03-13T09:50:07.244Z,14.55
2023-03-13T09:52:41.128Z,14.59
2023-03-13T09:55:30.574Z,14.60
2023-03-13T09:58:24.607Z,14.60
2023-03-13T10:01:06.764Z,14.61
2023-03-13T10:03:48.652Z,14.59
2023-03-13T10:06:28.868Z,14.60
2023-03-13T10:09:01.228Z,14.62
2023-03-13T10:11:47.592Z,14.65
2023-03-13T10:14:31.958Z,14.67
2023-03-13T10:17:44.253Z,14.71
2023-03-13T10:20:43.558Z,14.68
2023-03-13T10:23:35.896Z,14.68
2023-03-13T10:26:02.975Z,14.72
2023-03-13T10:28:30.014Z,14.72
2023-03-13T10:31:14.671Z,14.71
2023-03-13T10:33:43.136Z,14.71
2023-03-13T10:36:14.644Z,14.78
2023-03-13T10:38:53.024Z,14.73
2023-03-13T10:41:37.133Z,14.74
2023-03-13T10:44:22.806Z,14.77
2023-03-13T10:46:51.498Z,14.79
2023-03-13T10:49:23.400Z,14.76
2023-03-13T10:51:55.003Z,14.79
2023-03-13T10:54:35.274Z,14.78
2023-03-13T10:57:26.959Z,14.82
2023-03-13T10:59:55.371Z,14.84
2023-03-13T11:02:38.498Z,14.84
2023-03-13T11:05:26.232Z,14.85
2023-03-13T11:07:55.490Z,14.84
2023-03-13T11:10:30.513Z,14.88
2023-03-13T11:12:59.044Z,14.88
2023-03-13T11:15:41.866Z,14.89
2023-03-13T11:18:30.346Z,14.85
2023-03-13T11:21:08.687Z,14.88
2023-03-13T11:23:52.482Z,14.89
2023-03-13T11:27:04.152Z,14.91
2023-03-13T11:29:59.512Z,14.90
2023-03-13T11:33:17.958Z,14.94
2023-03-13T11:35:53.153Z,14.91
2023-03-13T11:38:27.653Z,14.92
2023-03-13T11:41:26.450Z,14.95
2023-03-13T11:44:19.798Z,14.95
2023-03-13T11:47:20.584Z,14.93
2023-03-13T11:50:08.797Z,14.93
2023-03-13T11:52:41.168Z,14.93
2023-03-13T11:55:28.486Z,14.95
2023-03-13T11:58:19.944Z,14.94
2023-03-13T12:01:13.005Z,14.99
2023-03-13T12:04:28.032Z,14.99
2023-03-13T12:07:35.378Z,14.98
2023-03-13T12:10:11.862Z,15.06
2023-03-13T12:13:03.977Z,15.04
2023-03-13T12:15:41.797Z,15.02
2023-03-13T12:18:34.136Z,15.06
2023-03-13T12:21:37.127Z,15.12
2023-03-13T12:24:36.377Z,15.09
2023-03-13T12:27:35.625Z,15.12
2023-03-13T12:30:22.528Z,15.13
2023-03-13T12:33:19.815Z,15.17
2023-03-13T12:36:29.454Z,15.14
2023-03-13T12:39:28.886Z,15.16
2023-03-13T12:42:30.112Z,15.18
2023-03-13T12:44:59.441Z,15.19
2023-03-13T12:48:01.172Z,15.21
2023-03-13T12:51:28.686Z,15.21
2023-03-13T12:54:32.900Z,15.21
2023-03-13T12:57:47.145Z,15.22
2023-03-13T13:00:23.135Z,15.23
2023-03-13T13:03:18.172Z,15.26
2023-03-13T13:06:16.775Z,15.30
2023-03-13T13:09:08.993Z,15.32
2023-03-13T13:11:38.744Z,15.31
2023-03-13T13:14:18.062Z,15.34
2023-03-13T13:17:16.222Z,15.36
2023-03-13T13:19:46.408Z,15.36
2023-03-13T13:22:37.617Z,15.44
2023-03-13T13:25:10.532Z,15.40
2023-03-13T13:27:37.370Z,15.38
2023-03-13T13:30:32.329Z,15.45
2023-03-13T13:33:36.985Z,15.43
2023-03-13T13:36:09.784Z,15.41
2023-03-13T13:38:42.088Z,15.46
2023-03-13T13:41:11.975Z,15.56
2023-03-13T13:43:43.273Z,15.52
2023-03-13T13:46:29.187Z,15.72
2023-03-13T13:49:05.803Z,15.58
2023-03-13T13:51:41.486Z,15.69
2023-03-13T13:54:42.233Z,15.68
2023-03-13T13:57:25.205Z,15.62
2023-03-13T14:00:21.333Z,15.76
2023-03-13T14:02:55.369Z,15.62
2023-03-13T14:05:32.573Z,15.58
2023-03-13T14:08:14.439Z,15.60
2023-03-13T14:11:04.815Z,15.58
2023-03-13T14:13:31.874Z,15.58
2023-03-13T14:16:24.686Z,15.57
2023-03-13T14:18:53.673Z,15.59
2023-03-13T14:21:24.266Z,15.69
2023-03-13T14:23:51.454Z,15.67
2023-03-13T14:26:19.805Z,15.75
2023-03-13T14:28:59.765Z,15.95
2023-03-13T14:31:35.665Z,15.85
2023-03-13T14:34:11.667Z,15.74
2023-03-13T14:37:11.191Z,15.82
2023-03-13T14:39:46.185Z,15.80
2023-03-13T14:42:18.782Z,15.76
2023-03-13T14:44:50.229Z,15.71
2023-03-13T14:47:31.050Z,15.69
2023-03-13T14:50:15.015Z,15.68
2023-03-13T14:53:05.256Z,15.65
2023-03-13T14:55:35.681Z,15.65
2023-03-13T14:58:29.688Z,15.64
2023-03-13T15:00:59.099Z,15.68
2023-03-13T15:03:32.725Z,15.66
2023-03-13T15:06:12.025Z,15.66
2023-03-13T15:08:45.999Z,15.66
2023-03-13T15:11:30.364Z,15.66
2023-03-13T15:13:57.633Z,15.66
2023-03-13T15:16:26.340Z,15.66
2023-03-13T15:18:55.453Z,15.70
2023-03-13T15:21:30.322Z,15.69
2023-03-13T15:24:19.146Z,15.73
2023-03-13T15:26:48.614Z,15.76
2023-03-13T15:29:18.279Z,15.77
2023-03-13T15:31:45.803Z,15.76
2023-03-13T15:34:14.816Z,15.77
2023-03-13T15:36:42.525Z,15.77
2023-03-13T15:39:22.981Z,15.79
2023-03-13T15:41:50.122Z,15.80
2023-03-13T15:44:17.252Z,15.84
2023-03-13T15:46:44.265Z,16.72
2023-03-13T15:49:13.069Z,17.58
2023-03-13T15:51:40.183Z,17.75
2023-03-13T15:54:07.214Z,17.82
2023-03-13T15:56:37.853Z,17.96
2023-03-13T15:59:16.159Z,17.67
2023-03-13T16:01:45.197Z,17.64
2023-03-13T16:04:12.628Z,17.72
2023-03-13T16:06:39.696Z,17.75
2023-03-13T16:09:07.496Z,17.81
2023-03-13T16:11:34.853Z,17.86
2023-03-13T16:14:02.598Z,17.87
2023-03-13T16:16:36.978Z,17.81
2023-03-13T16:19:04.473Z,17.71
2023-03-13T16:21:36.094Z,17.67
2023-03-13T16:24:03.246Z,17.59
2023-03-13T16:26:32.011Z,17.36
2023-03-13T16:28:59.547Z,17.42
2023-03-13T16:31:32.784Z,17.42
2023-03-13T16:34:00.952Z,17.32
2023-03-13T16:36:31.412Z,17.18
2023-03-13T16:39:00.531Z,17.17
2023-03-13T16:41:29.448Z,17.11
2023-03-13T16:43:57.170Z,17.10
2023-03-13T16:46:39.442Z,17.03
2023-03-13T16:49:12.832Z,16.96
2023-03-13T16:51:40.162Z,16.93
2023-03-13T16:54:07.518Z,16.90
2023-03-13T16:56:38.391Z,16.91
2023-03-13T16:59:17.988Z,16.77
2023-03-13T17:01:47.110Z,16.73
2023-03-13T17:04:14.267Z,16.67
2023-03-13T17:06:44.724Z,16.65
2023-03-13T17:09:17.266Z,16.59
2023-03-13T17:11:45.169Z,16.59
2023-03-13T17:14:13.367Z,16.49
2023-03-13T17:16:43.678Z,16.47
2023-03-13T17:19:14.928Z,16.42
2023-03-13T17:21:42.420Z,16.40
2023-03-13T17:24:09.583Z,16.36
2023-03-13T17:26:39.247Z,16.40
2023-03-13T17:29:10.406Z,16.37
2023-03-13T17:31:38.518Z,16.30
2023-03-13T17:34:08.181Z,16.25
2023-03-13T17:36:36.155Z,16.18
2023-03-13T17:39:06.920Z,16.11
2023-03-13T17:41:35.636Z,16.13
2023-03-13T17:44:05.875Z,16.03
2023-03-13T17:46:49.329Z,16.06
2023-03-13T17:49:20.471Z,15.98
2023-03-13T17:51:49.870Z,15.93
2023-03-13T17:54:17.758Z,15.94
2023-03-13T17:56:45.771Z,15.86
2023-03-13T17:59:18.504Z,15.88
2023-03-13T18:01:46.114Z,15.84
2023-03-13T18:04:13.612Z,15.89
2023-03-13T18:06:49.789Z,15.91
2023-03-13T18:09:20.787Z,15.87
2023-03-13T18:11:49.538Z,15.77
2023-03-13T18:14:16.790Z,15.70
2023-03-13T18:16:50.309Z,15.67
2023-03-13T18:19:24.769Z,15.81
2023-03-13T18:21:55.136Z,15.91
2023-03-13T18:24:22.794Z,15.98
2023-03-13T18:26:50.486Z,16.04
2023-03-13T18:29:26.775Z,16.06
2023-03-13T18:32:00.385Z,16.08
2023-03-13T18:34:28.046Z,16.11
2023-03-13T18:36:55.623Z,16.09
2023-03-13T18:39:22.870Z,16.08
2023-03-13T18:41:52.329Z,16.09
2023-03-13T18:44:20.947Z,16.09
2023-03-13T18:46:48.562Z,16.10
2023-03-13T18:49:21.912Z,15.18
2023-03-13T18:51:50.664Z,14.97
2023-03-13T18:54:17.940Z,14.87
2023-03-13T18:56:47.377Z,14.77
2023-03-13T18:59:22.200Z,14.70
2023-03-13T19:01:51.011Z,14.66
2023-03-13T19:04:19.692Z,14.56
2023-03-13T19:06:47.930Z,14.52
2023-03-13T19:09:42.107Z,14.45
2023-03-13T19:12:07.493Z,14.36
2023-03-13T19:14:34.575Z,14.36
2023-03-13T19:17:01.681Z,14.32
2023-03-13T19:19:28.852Z,14.29
2023-03-13T19:21:56.394Z,14.21
2023-03-13T19:24:26.721Z,14.20
2023-03-13T19:26:58.797Z,14.15
2023-03-13T19:29:28.698Z,14.07
2023-03-13T19:31:56.486Z,13.98
2023-03-13T19:34:23.551Z,13.97
2023-03-13T19:36:54.432Z,13.93
2023-03-13T19:39:26.621Z,13.89
2023-03-13T19:41:54.401Z,13.83
2023-03-13T19:44:22.283Z,13.82
2023-03-13T19:46:49.409Z,14.45
2023-03-13T19:49:20.019Z,15.01
2023-03-13T19:51:48.217Z,15.40
2023-03-13T19:54:15.820Z,15.70
2023-03-13T19:56:46.157Z,15.97
2023-03-13T19:59:21.474Z,16.19
2023-03-13T20:01:48.839Z,13.97
2023-03-13T20:04:16.352Z,13.74
2023-03-13T20:06:44.288Z,13.60
2023-03-13T20:09:15.690Z,13.50
2023-03-13T20:11:43.452Z,13.46
2023-03-13T20:14:10.608Z,13.49
2023-03-13T20:16:38.507Z,13.44
2023-03-13T20:19:06.336Z,13.46
2023-03-13T20:21:36.511Z,13.38
2023-03-13T20:24:04.235Z,13.26
2023-03-13T20:26:31.477Z,13.23
2023-03-13T20:28:58.830Z,13.15
2023-03-13T20:31:29.746Z,13.11
2023-03-13T20:33:58.371Z,13.12
2023-03-13T20:36:26.095Z,13.13
2023-03-13T20:38:53.980Z,13.07
2023-03-13T20:41:24.942Z,13.12
2023-03-13T20:43:52.675Z,13.21
2023-03-13T20:46:21.162Z,13.12
2023-03-13T20:48:48.736Z,13.15
2023-03-13T20:51:16.404Z,13.10
2023-03-13T20:53:43.625Z,13.14
2023-03-13T20:56:11.888Z,13.21
2023-03-13T20:58:39.659Z,13.17
2023-03-13T21:01:08.062Z,13.18
2023-03-13T21:03:36.268Z,13.15
2023-03-13T21:06:15.390Z,13.28
2023-03-13T21:08:43.613Z,13.19
2023-03-13T21:11:19.855Z,13.14
2023-03-13T21:13:47.417Z,13.12
2023-03-13T21:16:15.182Z,13.12
2023-03-13T21:18:42.602Z,13.13
2023-03-13T21:21:20.611Z,13.19
2023-03-13T21:23:52.151Z,13.21
2023-03-13T21:26:20.189Z,13.20
2023-03-13T21:28:48.041Z,13.20
2023-03-13T21:31:18.135Z,13.22
2023-03-13T21:33:46.717Z,13.22
2023-03-13T21:36:16.367Z,13.21
2023-03-13T21:38:44.034Z,13.17
2023-03-13T21:41:17.526Z,13.15
2023-03-13T21:43:45.342Z,13.20
2023-03-13T21:46:16.235Z,13.28
2023-03-13T21:51:13.666Z,13.11
2023-03-13T21:53:44.605Z,13.18
2023-03-13T21:56:15.386Z,13.15
2023-03-13T21:58:43.599Z,13.23
2023-03-13T22:01:11.077Z,13.19
2023-03-13T22:03:38.621Z,13.22
2023-03-13T22:06:20.046Z,13.19
2023-03-13T22:08:48.986Z,13.12
2023-03-13T22:11:16.151Z,13.18
2023-03-13T22:13:43.138Z,13.09
2023-03-13T22:16:11.505Z,13.24
2023-03-13T22:18:39.948Z,13.33
2023-03-13T22:21:07.218Z,13.41
2023-03-13T22:23:34.455Z,13.26
2023-03-13T22:26:01.480Z,13.25
2023-03-13T22:28:28.470Z,13.22
2023-03-13T22:30:55.489Z,13.25
2023-03-13T22:33:22.433Z,13.35
2023-03-13T22:35:54.269Z,13.44
2023-03-13T22:38:22.115Z,13.35
2023-03-13T22:41:00.414Z,13.43
2023-03-13T22:43:28.069Z,13.51
2023-03-13T22:45:56.240Z,13.49
2023-03-13T22:48:24.414Z,13.49
2023-03-13T22:51:13.318Z,13.44
2023-03-13T22:53:42.220Z,13.12
2023-03-13T22:56:11.931Z,13.04
2023-03-13T22:58:40.474Z,12.94
2023-03-13T23:01:10.360Z,12.89
2023-03-13T23:03:37.349Z,12.84
2023-03-13T23:06:17.963Z,12.76
2023-03-13T23:08:45.022Z,12.62
2023-03-13T23:11:12.100Z,12.76
2023-03-13T23:13:39.346Z,12.77
2023-03-13T23:16:12.140Z,12.62
2023-03-13T23:18:39.711Z,12.68
2023-03-13T23:21:11.056Z,12.65
2023-03-13T23:23:38.879Z,12.62
2023-03-13T23:26:09.857Z,12.61
2023-03-13T23:28:39.360Z,12.60
2023-03-13T23:31:21.291Z,12.56
2023-03-13T23:33:49.232Z,12.56
2023-03-13T23:36:18.920Z,12.53
2023-03-13T23:38:50.656Z,12.44
2023-03-13T23:41:18.657Z,12.39
2023-03-13T23:43:45.812Z,12.40
2023-03-13T23:46:23.636Z,12.28
2023-03-13T23:48:55.974Z,12.24
2023-03-13T23:51:24.238Z,12.24
2023-03-13T23:53:51.612Z,12.19
2023-03-13T23:56:18.926Z,12.38
2023-03-13T23:58:45.931Z,12.21
